Terminal Aerodrome Forecast
Issued by NWS

Home | Current Version | Previous Version | Text Only | Print | Product List | Glossary On
Versions: 1 2 3 4 5 6 7 8 9 10 11 12 13 14 15 16 17 18 19 20 21 22 23 24 25 26 27 28 29 30
000
FTUS45 KREV 252320
TAFCXP
TAF
KCXP 252320Z 2600/2624 29008KT P6SM VCTS SCT100CB BKN150
     FM260200 28011G19KT P6SM SCT120 SCT150
     FM260500 VRB04KT P6SM BKN150
     FM261900 21006KT P6SM SCT110=

USA.gov is the U.S. government's official web portal to all federal, state and local government web resources and services.